sensor_id;sensor_type;location;lat;lon;timestamp;P1;durP1;ratioP1;P2;durP2;ratioP2
5801;SDS011;2927;49.366;8.530;2023-04-03T00:01:30;3.67;;;2.07;;
5801;SDS011;2927;49.366;8.530;2023-04-03T00:03:56;3.03;;;2.00;;
5801;SDS011;2927;49.366;8.530;2023-04-03T00:06:22;4.73;;;1.60;;
5801;SDS011;2927;49.366;8.530;2023-04-03T00:08:48;2.70;;;1.33;;
5801;SDS011;2927;49.366;8.530;2023-04-03T00:11:14;2.87;;;1.63;;
5801;SDS011;2927;49.366;8.530;2023-04-03T00:13:40;1.30;;;1.20;;
5801;SDS011;2927;49.366;8.530;2023-04-03T00:16:07;1.43;;;0.80;;
5801;SDS011;2927;49.366;8.530;2023-04-03T00:18:33;1.47;;;1.37;;
5801;SDS011;2927;49.366;8.530;2023-04-03T00:20:59;4.77;;;2.37;;
5801;SDS011;2927;49.366;8.530;2023-04-03T00:23:25;7.87;;;3.27;;
5801;SDS011;2927;49.366;8.530;2023-04-03T00:25:51;4.27;;;2.10;;
5801;SDS011;2927;49.366;8.530;2023-04-03T00:28:17;5.37;;;2.40;;
5801;SDS011;2927;49.366;8.530;2023-04-03T00:30:42;9.27;;;3.73;;
5801;SDS011;2927;49.366;8.530;2023-04-03T00:33:09;4.77;;;2.47;;
5801;SDS011;2927;49.366;8.530;2023-04-03T00:35:37;12.67;;;4.03;;
5801;SDS011;2927;49.366;8.530;2023-04-03T00:38:03;3.57;;;1.80;;
5801;SDS011;2927;49.366;8.530;2023-04-03T00:40:32;3.10;;;1.30;;
5801;SDS011;2927;49.366;8.530;2023-04-03T00:42:59;1.17;;;1.10;;
5801;SDS011;2927;49.366;8.530;2023-04-03T00:45:27;1.87;;;1.23;;
5801;SDS011;2927;49.366;8.530;2023-04-03T00:48:03;2.40;;;1.00;;
5801;SDS011;2927;49.366;8.530;2023-04-03T00:50:31;6.60;;;1.20;;
5801;SDS011;2927;49.366;8.530;2023-04-03T00:52:59;1.27;;;1.23;;
5801;SDS011;2927;49.366;8.530;2023-04-03T00:55:25;1.30;;;1.20;;
5801;SDS011;2927;49.366;8.530;2023-04-03T00:57:51;3.50;;;1.87;;
5801;SDS011;2927;49.366;8.530;2023-04-03T01:00:19;10.57;;;3.00;;
5801;SDS011;2927;49.366;8.530;2023-04-03T01:02:45;5.10;;;2.20;;
5801;SDS011;2927;49.366;8.530;2023-04-03T01:05:11;4.87;;;2.00;;
5801;SDS011;2927;49.366;8.530;2023-04-03T01:07:40;8.57;;;2.10;;
5801;SDS011;2927;49.366;8.530;2023-04-03T01:10:07;6.23;;;2.77;;
5801;SDS011;2927;49.366;8.530;2023-04-03T01:12:35;4.30;;;2.37;;
5801;SDS011;2927;49.366;8.530;2023-04-03T01:17:37;14.23;;;4.00;;
5801;SDS011;2927;49.366;8.530;2023-04-03T01:22:42;1.30;;;1.20;;
5801;SDS011;2927;49.366;8.530;2023-04-03T01:25:08;2.03;;;1.20;;
5801;SDS011;2927;49.366;8.530;2023-04-03T01:27:34;4.00;;;1.37;;
5801;SDS011;2927;49.366;8.530;2023-04-03T01:30:00;5.30;;;1.23;;
5801;SDS011;2927;49.366;8.530;2023-04-03T01:32:25;2.87;;;1.10;;
5801;SDS011;2927;49.366;8.530;2023-04-03T01:34:51;1.10;;;1.00;;
5801;SDS011;2927;49.366;8.530;2023-04-03T01:37:16;1.70;;;1.10;;
5801;SDS011;2927;49.366;8.530;2023-04-03T01:39:42;6.37;;;1.40;;
5801;SDS011;2927;49.366;8.530;2023-04-03T01:42:07;2.93;;;1.40;;
5801;SDS011;2927;49.366;8.530;2023-04-03T01:44:33;1.97;;;1.03;;
5801;SDS011;2927;49.366;8.530;2023-04-03T01:46:58;3.13;;;1.30;;
5801;SDS011;2927;49.366;8.530;2023-04-03T01:49:24;2.10;;;1.17;;
5801;SDS011;2927;49.366;8.530;2023-04-03T01:51:49;1.67;;;0.97;;
5801;SDS011;2927;49.366;8.530;2023-04-03T01:54:15;5.13;;;1.67;;
5801;SDS011;2927;49.366;8.530;2023-04-03T01:56:40;4.53;;;1.50;;
5801;SDS011;2927;49.366;8.530;2023-04-03T01:59:06;4.73;;;2.07;;
5801;SDS011;2927;49.366;8.530;2023-04-03T02:01:31;4.70;;;1.33;;
5801;SDS011;2927;49.366;8.530;2023-04-03T02:03:57;2.20;;;1.37;;
5801;SDS011;2927;49.366;8.530;2023-04-03T02:06:22;3.67;;;1.80;;
5801;SDS011;2927;49.366;8.530;2023-04-03T02:08:48;2.10;;;1.20;;
5801;SDS011;2927;49.366;8.530;2023-04-03T02:11:13;4.17;;;1.80;;
5801;SDS011;2927;49.366;8.530;2023-04-03T02:13:39;2.13;;;1.93;;
5801;SDS011;2927;49.366;8.530;2023-04-03T02:16:08;3.80;;;1.03;;
5801;SDS011;2927;49.366;8.530;2023-04-03T02:18:36;8.07;;;1.07;;
5801;SDS011;2927;49.366;8.530;2023-04-03T02:21:01;1.30;;;1.20;;
5801;SDS011;2927;49.366;8.530;2023-04-03T02:23:27;2.03;;;1.60;;
5801;SDS011;2927;49.366;8.530;2023-04-03T02:25:52;1.97;;;1.17;;
5801;SDS011;2927;49.366;8.530;2023-04-03T02:28:18;2.17;;;1.30;;
5801;SDS011;2927;49.366;8.530;2023-04-03T02:30:44;1.27;;;1.17;;
5801;SDS011;2927;49.366;8.530;2023-04-03T02:33:09;1.53;;;1.23;;
5801;SDS011;2927;49.366;8.530;2023-04-03T02:35:35;1.43;;;1.33;;
5801;SDS011;2927;49.366;8.530;2023-04-03T02:38:01;2.30;;;1.30;;
5801;SDS011;2927;49.366;8.530;2023-04-03T02:40:27;3.70;;;1.70;;
5801;SDS011;2927;49.366;8.530;2023-04-03T02:42:52;2.27;;;1.40;;
5801;SDS011;2927;49.366;8.530;2023-04-03T02:45:18;1.40;;;1.30;;
5801;SDS011;2927;49.366;8.530;2023-04-03T02:47:43;2.47;;;1.77;;
5801;SDS011;2927;49.366;8.530;2023-04-03T02:50:09;3.90;;;1.77;;
5801;SDS011;2927;49.366;8.530;2023-04-03T02:52:34;2.87;;;1.63;;
5801;SDS011;2927;49.366;8.530;2023-04-03T02:55:00;2.67;;;1.70;;
5801;SDS011;2927;49.366;8.530;2023-04-03T02:57:25;1.67;;;1.57;;
5801;SDS011;2927;49.366;8.530;2023-04-03T02:59:51;3.90;;;1.90;;
5801;SDS011;2927;49.366;8.530;2023-04-03T03:02:16;2.00;;;1.73;;
5801;SDS011;2927;49.366;8.530;2023-04-03T03:04:42;2.80;;;2.30;;
5801;SDS011;2927;49.366;8.530;2023-04-03T03:07:07;8.60;;;2.00;;
5801;SDS011;2927;49.366;8.530;2023-04-03T03:09:33;2.10;;;1.90;;
5801;SDS011;2927;49.366;8.530;2023-04-03T03:11:58;1.40;;;1.30;;
5801;SDS011;2927;49.366;8.530;2023-04-03T03:14:25;3.40;;;1.53;;
5801;SDS011;2927;49.366;8.530;2023-04-03T03:16:50;2.23;;;1.70;;
5801;SDS011;2927;49.366;8.530;2023-04-03T03:19:16;2.10;;;1.90;;
5801;SDS011;2927;49.366;8.530;2023-04-03T03:21:41;4.77;;;1.90;;
5801;SDS011;2927;49.366;8.530;2023-04-03T03:24:07;3.10;;;2.10;;
5801;SDS011;2927;49.366;8.530;2023-04-03T03:26:33;2.90;;;1.90;;
5801;SDS011;2927;49.366;8.530;2023-04-03T03:28:58;4.17;;;2.40;;
5801;SDS011;2927;49.366;8.530;2023-04-03T03:31:24;2.10;;;2.03;;
5801;SDS011;2927;49.366;8.530;2023-04-03T03:33:49;2.33;;;2.13;;
5801;SDS011;2927;49.366;8.530;2023-04-03T03:36:16;5.10;;;1.87;;
5801;SDS011;2927;49.366;8.530;2023-04-03T03:38:41;3.30;;;1.43;;
5801;SDS011;2927;49.366;8.530;2023-04-03T03:41:07;3.13;;;2.07;;
5801;SDS011;2927;49.366;8.530;2023-04-03T03:43:33;4.10;;;2.40;;
5801;SDS011;2927;49.366;8.530;2023-04-03T03:45:58;3.63;;;2.13;;
5801;SDS011;2927;49.366;8.530;2023-04-03T03:48:24;2.70;;;2.50;;
5801;SDS011;2927;49.366;8.530;2023-04-03T03:50:49;4.10;;;2.47;;
5801;SDS011;2927;49.366;8.530;2023-04-03T03:53:15;2.57;;;2.13;;
5801;SDS011;2927;49.366;8.530;2023-04-03T03:55:41;3.37;;;2.60;;
5801;SDS011;2927;49.366;8.530;2023-04-03T03:58:06;2.70;;;2.10;;
5801;SDS011;2927;49.366;8.530;2023-04-03T04:00:32;2.40;;;2.30;;
5801;SDS011;2927;49.366;8.530;2023-04-03T04:02:57;6.90;;;2.00;;
5801;SDS011;2927;49.366;8.530;2023-04-03T04:05:23;4.20;;;1.73;;
5801;SDS011;2927;49.366;8.530;2023-04-03T04:07:48;3.90;;;1.87;;
5801;SDS011;2927;49.366;8.530;2023-04-03T04:10:14;4.90;;;2.27;;
5801;SDS011;2927;49.366;8.530;2023-04-03T04:12:39;6.00;;;2.20;;
5801;SDS011;2927;49.366;8.530;2023-04-03T04:15:05;2.10;;;1.63;;
5801;SDS011;2927;49.366;8.530;2023-04-03T04:17:31;3.63;;;2.17;;
5801;SDS011;2927;49.366;8.530;2023-04-03T04:19:56;5.40;;;1.47;;
5801;SDS011;2927;49.366;8.530;2023-04-03T04:22:22;5.60;;;2.20;;
5801;SDS011;2927;49.366;8.530;2023-04-03T04:24:47;2.53;;;1.80;;
5801;SDS011;2927;49.366;8.530;2023-04-03T04:27:13;2.77;;;1.63;;
5801;SDS011;2927;49.366;8.530;2023-04-03T04:29:40;9.10;;;2.27;;
5801;SDS011;2927;49.366;8.530;2023-04-03T04:32:05;2.73;;;2.23;;
5801;SDS011;2927;49.366;8.530;2023-04-03T04:34:31;15.97;;;2.53;;
5801;SDS011;2927;49.366;8.530;2023-04-03T04:36:56;2.53;;;2.13;;
5801;SDS011;2927;49.366;8.530;2023-04-03T04:39:22;2.40;;;2.20;;
5801;SDS011;2927;49.366;8.530;2023-04-03T04:41:48;4.70;;;2.30;;
5801;SDS011;2927;49.366;8.530;2023-04-03T04:44:13;2.00;;;1.80;;
5801;SDS011;2927;49.366;8.530;2023-04-03T04:46:39;2.60;;;2.00;;
5801;SDS011;2927;49.366;8.530;2023-04-03T04:49:05;2.20;;;2.00;;
5801;SDS011;2927;49.366;8.530;2023-04-03T04:51:30;6.07;;;2.60;;
5801;SDS011;2927;49.366;8.530;2023-04-03T04:53:56;4.33;;;2.73;;
5801;SDS011;2927;49.366;8.530;2023-04-03T04:56:21;2.60;;;2.37;;
5801;SDS011;2927;49.366;8.530;2023-04-03T04:58:47;9.27;;;2.37;;
5801;SDS011;2927;49.366;8.530;2023-04-03T05:01:12;2.50;;;2.20;;
5801;SDS011;2927;49.366;8.530;2023-04-03T05:03:38;3.43;;;2.17;;
5801;SDS011;2927;49.366;8.530;2023-04-03T05:06:03;4.33;;;2.50;;
5801;SDS011;2927;49.366;8.530;2023-04-03T05:08:30;8.90;;;2.57;;
5801;SDS011;2927;49.366;8.530;2023-04-03T05:10:55;2.67;;;2.00;;
5801;SDS011;2927;49.366;8.530;2023-04-03T05:13:21;3.43;;;1.80;;
5801;SDS011;2927;49.366;8.530;2023-04-03T05:15:47;6.73;;;2.23;;
5801;SDS011;2927;49.366;8.530;2023-04-03T05:18:12;2.60;;;2.20;;
5801;SDS011;2927;49.366;8.530;2023-04-03T05:20:38;6.20;;;2.53;;
5801;SDS011;2927;49.366;8.530;2023-04-03T05:23:04;3.13;;;2.70;;
5801;SDS011;2927;49.366;8.530;2023-04-03T05:25:30;4.37;;;2.00;;
5801;SDS011;2927;49.366;8.530;2023-04-03T05:27:55;4.03;;;2.90;;
5801;SDS011;2927;49.366;8.530;2023-04-03T05:30:21;2.70;;;2.47;;
5801;SDS011;2927;49.366;8.530;2023-04-03T05:32:47;3.40;;;2.80;;
5801;SDS011;2927;49.366;8.530;2023-04-03T05:35:12;6.57;;;2.60;;
5801;SDS011;2927;49.366;8.530;2023-04-03T05:37:38;5.90;;;2.30;;
5801;SDS011;2927;49.366;8.530;2023-04-03T05:40:04;3.43;;;2.43;;
5801;SDS011;2927;49.366;8.530;2023-04-03T05:42:30;2.03;;;1.83;;
5801;SDS011;2927;49.366;8.530;2023-04-03T05:44:56;5.77;;;1.67;;
5801;SDS011;2927;49.366;8.530;2023-04-03T05:47:22;2.70;;;2.00;;
5801;SDS011;2927;49.366;8.530;2023-04-03T05:49:47;10.23;;;2.40;;
5801;SDS011;2927;49.366;8.530;2023-04-03T05:52:26;3.57;;;2.30;;
5801;SDS011;2927;49.366;8.530;2023-04-03T05:54:55;7.53;;;2.27;;
5801;SDS011;2927;49.366;8.530;2023-04-03T05:57:21;2.00;;;1.90;;
5801;SDS011;2927;49.366;8.530;2023-04-03T05:59:47;1.90;;;1.40;;
5801;SDS011;2927;49.366;8.530;2023-04-03T06:02:14;1.73;;;1.30;;
5801;SDS011;2927;49.366;8.530;2023-04-03T06:04:41;3.57;;;1.90;;
5801;SDS011;2927;49.366;8.530;2023-04-03T06:07:08;1.90;;;1.63;;
5801;SDS011;2927;49.366;8.530;2023-04-03T06:09:36;2.60;;;1.73;;
5801;SDS011;2927;49.366;8.530;2023-04-03T06:12:02;1.73;;;1.63;;
5801;SDS011;2927;49.366;8.530;2023-04-03T06:14:27;2.77;;;2.03;;
5801;SDS011;2927;49.366;8.530;2023-04-03T06:16:53;2.00;;;1.70;;
5801;SDS011;2927;49.366;8.530;2023-04-03T06:19:19;5.47;;;1.97;;
5801;SDS011;2927;49.366;8.530;2023-04-03T06:21:45;3.40;;;2.30;;
5801;SDS011;2927;49.366;8.530;2023-04-03T06:24:12;3.63;;;1.53;;
5801;SDS011;2927;49.366;8.530;2023-04-03T06:26:40;1.50;;;1.40;;
5801;SDS011;2927;49.366;8.530;2023-04-03T06:29:05;2.13;;;1.33;;
5801;SDS011;2927;49.366;8.530;2023-04-03T06:31:31;2.60;;;1.90;;
5801;SDS011;2927;49.366;8.530;2023-04-03T06:33:56;2.43;;;1.40;;
5801;SDS011;2927;49.366;8.530;2023-04-03T06:36:22;2.10;;;1.43;;
5801;SDS011;2927;49.366;8.530;2023-04-03T06:38:48;2.73;;;1.30;;
5801;SDS011;2927;49.366;8.530;2023-04-03T06:41:14;1.97;;;1.60;;
5801;SDS011;2927;49.366;8.530;2023-04-03T06:43:41;1.77;;;1.30;;
5801;SDS011;2927;49.366;8.530;2023-04-03T06:46:10;2.43;;;1.93;;
5801;SDS011;2927;49.366;8.530;2023-04-03T06:48:41;7.40;;;1.80;;
5801;SDS011;2927;49.366;8.530;2023-04-03T06:51:11;3.60;;;1.80;;
5801;SDS011;2927;49.366;8.530;2023-04-03T06:53:47;2.20;;;1.50;;
5801;SDS011;2927;49.366;8.530;2023-04-03T06:56:13;2.70;;;1.30;;
5801;SDS011;2927;49.366;8.530;2023-04-03T06:58:40;2.80;;;1.73;;
5801;SDS011;2927;49.366;8.530;2023-04-03T07:01:06;3.13;;;1.33;;
5801;SDS011;2927;49.366;8.530;2023-04-03T07:03:34;2.13;;;1.70;;
5801;SDS011;2927;49.366;8.530;2023-04-03T07:06:00;4.30;;;2.00;;
5801;SDS011;2927;49.366;8.530;2023-04-03T07:08:26;4.63;;;1.40;;
5801;SDS011;2927;49.366;8.530;2023-04-03T07:10:51;6.70;;;1.83;;
5801;SDS011;2927;49.366;8.530;2023-04-03T07:13:17;2.30;;;2.07;;
5801;SDS011;2927;49.366;8.530;2023-04-03T07:15:42;3.53;;;1.53;;
5801;SDS011;2927;49.366;8.530;2023-04-03T07:18:08;3.57;;;1.40;;
5801;SDS011;2927;49.366;8.530;2023-04-03T07:20:34;2.43;;;1.67;;
5801;SDS011;2927;49.366;8.530;2023-04-03T07:23:00;2.57;;;1.67;;
5801;SDS011;2927;49.366;8.530;2023-04-03T07:25:26;2.30;;;1.17;;
5801;SDS011;2927;49.366;8.530;2023-04-03T07:27:52;2.67;;;1.90;;
5801;SDS011;2927;49.366;8.530;2023-04-03T07:30:19;4.10;;;1.80;;
5801;SDS011;2927;49.366;8.530;2023-04-03T07:32:45;3.00;;;1.70;;
5801;SDS011;2927;49.366;8.530;2023-04-03T07:35:11;2.17;;;1.20;;
5801;SDS011;2927;49.366;8.530;2023-04-03T07:37:37;2.53;;;1.20;;
5801;SDS011;2927;49.366;8.530;2023-04-03T07:40:02;2.20;;;1.50;;
5801;SDS011;2927;49.366;8.530;2023-04-03T07:42:29;2.33;;;1.73;;
5801;SDS011;2927;49.366;8.530;2023-04-03T07:44:55;2.20;;;1.57;;
5801;SDS011;2927;49.366;8.530;2023-04-03T07:47:21;4.83;;;1.57;;
5801;SDS011;2927;49.366;8.530;2023-04-03T07:49:47;6.00;;;1.47;;
5801;SDS011;2927;49.366;8.530;2023-04-03T07:52:13;1.00;;;1.00;;
5801;SDS011;2927;49.366;8.530;2023-04-03T07:54:40;3.93;;;1.33;;
5801;SDS011;2927;49.366;8.530;2023-04-03T07:57:06;2.03;;;1.13;;
5801;SDS011;2927;49.366;8.530;2023-04-03T07:59:31;4.20;;;0.90;;
5801;SDS011;2927;49.366;8.530;2023-04-03T08:01:57;2.20;;;1.30;;
5801;SDS011;2927;49.366;8.530;2023-04-03T08:04:23;6.47;;;1.50;;
5801;SDS011;2927;49.366;8.530;2023-04-03T08:06:48;4.10;;;1.47;;
5801;SDS011;2927;49.366;8.530;2023-04-03T08:09:14;2.33;;;1.30;;
5801;SDS011;2927;49.366;8.530;2023-04-03T08:11:41;2.53;;;1.00;;
5801;SDS011;2927;49.366;8.530;2023-04-03T08:14:07;3.10;;;1.57;;
5801;SDS011;2927;49.366;8.530;2023-04-03T08:16:33;3.30;;;1.10;;
5801;SDS011;2927;49.366;8.530;2023-04-03T08:18:59;2.67;;;1.10;;
5801;SDS011;2927;49.366;8.530;2023-04-03T08:21:24;1.87;;;1.30;;
5801;SDS011;2927;49.366;8.530;2023-04-03T08:23:51;3.03;;;1.50;;
5801;SDS011;2927;49.366;8.530;2023-04-03T08:26:18;1.53;;;1.20;;
5801;SDS011;2927;49.366;8.530;2023-04-03T08:28:46;1.50;;;0.80;;
5801;SDS011;2927;49.366;8.530;2023-04-03T08:31:13;2.00;;;1.17;;
5801;SDS011;2927;49.366;8.530;2023-04-03T08:33:40;3.70;;;1.20;;
5801;SDS011;2927;49.366;8.530;2023-04-03T08:36:07;1.10;;;0.83;;
5801;SDS011;2927;49.366;8.530;2023-04-03T08:38:40;2.33;;;0.77;;
5801;SDS011;2927;49.366;8.530;2023-04-03T08:44:03;1.33;;;0.93;;
5801;SDS011;2927;49.366;8.530;2023-04-03T08:49:46;2.33;;;1.30;;
5801;SDS011;2927;49.366;8.530;2023-04-03T08:54:54;2.77;;;0.93;;
5801;SDS011;2927;49.366;8.530;2023-04-03T08:57:28;4.00;;;1.20;;
5801;SDS011;2927;49.366;8.530;2023-04-03T09:00:05;2.50;;;0.80;;
5801;SDS011;2927;49.366;8.530;2023-04-03T09:02:43;3.70;;;0.90;;
5801;SDS011;2927;49.366;8.530;2023-04-03T09:05:12;3.90;;;1.30;;
5801;SDS011;2927;49.366;8.530;2023-04-03T09:07:55;8.07;;;1.57;;
5801;SDS011;2927;49.366;8.530;2023-04-03T09:10:28;3.00;;;0.80;;
5801;SDS011;2927;49.366;8.530;2023-04-03T09:12:59;1.40;;;0.80;;
5801;SDS011;2927;49.366;8.530;2023-04-03T09:15:29;4.60;;;1.23;;
5801;SDS011;2927;49.366;8.530;2023-04-03T09:23:19;2.83;;;1.00;;
5801;SDS011;2927;49.366;8.530;2023-04-03T09:26:07;2.53;;;1.17;;
5801;SDS011;2927;49.366;8.530;2023-04-03T09:28:39;2.87;;;1.23;;
5801;SDS011;2927;49.366;8.530;2023-04-03T09:31:18;2.70;;;0.90;;
5801;SDS011;2927;49.366;8.530;2023-04-03T09:33:50;2.20;;;0.83;;
5801;SDS011;2927;49.366;8.530;2023-04-03T09:36:37;1.00;;;0.90;;
5801;SDS011;2927;49.366;8.530;2023-04-03T09:39:05;1.20;;;0.77;;
5801;SDS011;2927;49.366;8.530;2023-04-03T09:41:35;4.33;;;1.03;;
5801;SDS011;2927;49.366;8.530;2023-04-03T09:44:00;1.77;;;1.13;;
5801;SDS011;2927;49.366;8.530;2023-04-03T09:46:30;1.50;;;0.70;;
5801;SDS011;2927;49.366;8.530;2023-04-03T09:48:58;4.30;;;0.90;;
5801;SDS011;2927;49.366;8.530;2023-04-03T09:51:27;1.00;;;0.90;;
5801;SDS011;2927;49.366;8.530;2023-04-03T09:53:53;0.87;;;0.87;;
5801;SDS011;2927;49.366;8.530;2023-04-03T09:56:24;3.10;;;1.30;;
5801;SDS011;2927;49.366;8.530;2023-04-03T10:01:33;2.03;;;1.63;;
5801;SDS011;2927;49.366;8.530;2023-04-03T10:06:55;5.03;;;1.40;;
5801;SDS011;2927;49.366;8.530;2023-04-03T10:09:30;1.63;;;0.57;;
5801;SDS011;2927;49.366;8.530;2023-04-03T10:14:26;1.00;;;0.83;;
5801;SDS011;2927;49.366;8.530;2023-04-03T10:16:56;3.03;;;0.67;;
5801;SDS011;2927;49.366;8.530;2023-04-03T10:22:42;2.50;;;0.80;;
5801;SDS011;2927;49.366;8.530;2023-04-03T10:27:56;2.83;;;0.97;;
5801;SDS011;2927;49.366;8.530;2023-04-03T10:36:10;3.67;;;1.53;;
5801;SDS011;2927;49.366;8.530;2023-04-03T10:41:50;3.97;;;0.67;;
5801;SDS011;2927;49.366;8.530;2023-04-03T10:45:00;1.70;;;0.73;;
5801;SDS011;2927;49.366;8.530;2023-04-03T10:47:58;1.10;;;0.90;;
5801;SDS011;2927;49.366;8.530;2023-04-03T10:50:49;3.40;;;0.80;;
5801;SDS011;2927;49.366;8.530;2023-04-03T10:53:37;0.90;;;0.90;;
5801;SDS011;2927;49.366;8.530;2023-04-03T10:56:39;1.63;;;0.93;;
5801;SDS011;2927;49.366;8.530;2023-04-03T11:01:43;1.27;;;0.80;;
5801;SDS011;2927;49.366;8.530;2023-04-03T11:04:13;3.97;;;0.97;;
5801;SDS011;2927;49.366;8.530;2023-04-03T11:06:49;8.07;;;1.20;;
5801;SDS011;2927;49.366;8.530;2023-04-03T11:09:27;0.97;;;0.60;;
5801;SDS011;2927;49.366;8.530;2023-04-03T11:12:00;0.80;;;0.80;;
5801;SDS011;2927;49.366;8.530;2023-04-03T11:14:32;0.40;;;0.40;;
5801;SDS011;2927;49.366;8.530;2023-04-03T11:19:45;5.80;;;0.57;;
5801;SDS011;2927;49.366;8.530;2023-04-03T11:25:03;1.93;;;0.60;;
5801;SDS011;2927;49.366;8.530;2023-04-03T11:27:47;1.37;;;0.70;;
5801;SDS011;2927;49.366;8.530;2023-04-03T11:36:27;1.13;;;1.00;;
5801;SDS011;2927;49.366;8.530;2023-04-03T11:39:13;2.70;;;0.73;;
5801;SDS011;2927;49.366;8.530;2023-04-03T11:41:50;1.03;;;0.93;;
5801;SDS011;2927;49.366;8.530;2023-04-03T11:44:34;0.50;;;0.50;;
5801;SDS011;2927;49.366;8.530;2023-04-03T11:47:07;3.33;;;1.70;;
5801;SDS011;2927;49.366;8.530;2023-04-03T11:55:43;0.90;;;0.60;;
5801;SDS011;2927;49.366;8.530;2023-04-03T11:58:23;0.93;;;0.60;;
5801;SDS011;2927;49.366;8.530;2023-04-03T12:01:00;3.30;;;0.70;;
5801;SDS011;2927;49.366;8.530;2023-04-03T12:03:56;1.73;;;0.73;;
5801;SDS011;2927;49.366;8.530;2023-04-03T12:08:58;3.20;;;1.00;;
5801;SDS011;2927;49.366;8.530;2023-04-03T12:11:25;6.23;;;0.80;;
5801;SDS011;2927;49.366;8.530;2023-04-03T12:16:41;0.57;;;0.57;;
5801;SDS011;2927;49.366;8.530;2023-04-03T12:24:27;0.93;;;0.73;;
5801;SDS011;2927;49.366;8.530;2023-04-03T12:34:41;2.50;;;1.03;;
5801;SDS011;2927;49.366;8.530;2023-04-03T12:43:16;1.57;;;0.80;;
5801;SDS011;2927;49.366;8.530;2023-04-03T12:48:39;6.80;;;1.17;;
5801;SDS011;2927;49.366;8.530;2023-04-03T12:51:55;6.50;;;1.00;;
5801;SDS011;2927;49.366;8.530;2023-04-03T12:54:26;7.50;;;0.93;;
5801;SDS011;2927;49.366;8.530;2023-04-03T12:57:08;1.57;;;1.47;;
5801;SDS011;2927;49.366;8.530;2023-04-03T12:59:41;1.37;;;0.80;;
5801;SDS011;2927;49.366;8.530;2023-04-03T13:02:15;3.13;;;1.00;;
5801;SDS011;2927;49.366;8.530;2023-04-03T13:04:57;5.30;;;1.37;;
5801;SDS011;2927;49.366;8.530;2023-04-03T13:07:25;0.70;;;0.70;;
5801;SDS011;2927;49.366;8.530;2023-04-03T13:12:50;4.00;;;1.07;;
5801;SDS011;2927;49.366;8.530;2023-04-03T13:15:22;3.70;;;1.10;;
5801;SDS011;2927;49.366;8.530;2023-04-03T13:17:53;1.60;;;0.80;;
5801;SDS011;2927;49.366;8.530;2023-04-03T13:20:21;2.20;;;1.37;;
5801;SDS011;2927;49.366;8.530;2023-04-03T13:22:52;3.43;;;1.10;;
5801;SDS011;2927;49.366;8.530;2023-04-03T13:25:28;1.70;;;0.87;;
5801;SDS011;2927;49.366;8.530;2023-04-03T13:27:57;1.37;;;0.70;;
5801;SDS011;2927;49.366;8.530;2023-04-03T13:30:32;1.10;;;0.97;;
5801;SDS011;2927;49.366;8.530;2023-04-03T13:33:02;2.30;;;0.80;;
5801;SDS011;2927;49.366;8.530;2023-04-03T13:35:35;3.50;;;1.47;;
5801;SDS011;2927;49.366;8.530;2023-04-03T13:38:22;0.93;;;0.73;;
5801;SDS011;2927;49.366;8.530;2023-04-03T13:40:51;0.83;;;0.83;;
5801;SDS011;2927;49.366;8.530;2023-04-03T13:43:24;4.90;;;0.93;;
5801;SDS011;2927;49.366;8.530;2023-04-03T13:48:51;2.40;;;1.00;;
5801;SDS011;2927;49.366;8.530;2023-04-03T13:51:19;0.90;;;0.73;;
5801;SDS011;2927;49.366;8.530;2023-04-03T13:53:52;1.53;;;1.17;;
5801;SDS011;2927;49.366;8.530;2023-04-03T13:56:24;6.40;;;0.97;;
5801;SDS011;2927;49.366;8.530;2023-04-03T14:06:45;1.53;;;0.83;;
5801;SDS011;2927;49.366;8.530;2023-04-03T14:09:11;2.50;;;0.90;;
5801;SDS011;2927;49.366;8.530;2023-04-03T14:11:38;3.53;;;1.00;;
5801;SDS011;2927;49.366;8.530;2023-04-03T14:14:09;1.40;;;1.30;;
5801;SDS011;2927;49.366;8.530;2023-04-03T14:16:40;0.83;;;0.83;;
5801;SDS011;2927;49.366;8.530;2023-04-03T14:19:11;0.80;;;0.80;;
5801;SDS011;2927;49.366;8.530;2023-04-03T14:21:43;1.90;;;1.10;;
5801;SDS011;2927;49.366;8.530;2023-04-03T14:24:08;2.30;;;1.10;;
5801;SDS011;2927;49.366;8.530;2023-04-03T14:26:34;3.13;;;0.80;;
5801;SDS011;2927;49.366;8.530;2023-04-03T14:28:59;2.10;;;0.90;;
5801;SDS011;2927;49.366;8.530;2023-04-03T14:31:25;1.90;;;1.00;;
5801;SDS011;2927;49.366;8.530;2023-04-03T14:33:51;3.23;;;1.03;;
5801;SDS011;2927;49.366;8.530;2023-04-03T14:36:21;1.50;;;1.00;;
5801;SDS011;2927;49.366;8.530;2023-04-03T14:38:50;1.20;;;0.80;;
5801;SDS011;2927;49.366;8.530;2023-04-03T14:41:18;0.70;;;0.70;;
5801;SDS011;2927;49.366;8.530;2023-04-03T14:43:47;1.23;;;0.97;;
5801;SDS011;2927;49.366;8.530;2023-04-03T14:46:15;1.47;;;1.07;;
5801;SDS011;2927;49.366;8.530;2023-04-03T14:48:51;1.70;;;1.10;;
5801;SDS011;2927;49.366;8.530;2023-04-03T14:51:16;0.90;;;0.90;;
5801;SDS011;2927;49.366;8.530;2023-04-03T14:53:43;1.70;;;0.93;;
5801;SDS011;2927;49.366;8.530;2023-04-03T14:56:14;1.47;;;0.87;;
5801;SDS011;2927;49.366;8.530;2023-04-03T14:58:43;2.73;;;1.50;;
5801;SDS011;2927;49.366;8.530;2023-04-03T15:01:11;3.83;;;1.20;;
5801;SDS011;2927;49.366;8.530;2023-04-03T15:03:38;0.77;;;0.77;;
5801;SDS011;2927;49.366;8.530;2023-04-03T15:06:04;2.20;;;0.70;;
5801;SDS011;2927;49.366;8.530;2023-04-03T15:08:30;2.37;;;1.53;;
5801;SDS011;2927;49.366;8.530;2023-04-03T15:10:56;10.07;;;1.37;;
5801;SDS011;2927;49.366;8.530;2023-04-03T15:13:22;0.90;;;0.90;;
5801;SDS011;2927;49.366;8.530;2023-04-03T15:15:49;0.83;;;0.83;;
5801;SDS011;2927;49.366;8.530;2023-04-03T15:18:23;1.90;;;0.80;;
5801;SDS011;2927;49.366;8.530;2023-04-03T15:20:54;1.67;;;0.80;;
5801;SDS011;2927;49.366;8.530;2023-04-03T15:23:20;2.00;;;0.87;;
5801;SDS011;2927;49.366;8.530;2023-04-03T15:25:50;2.33;;;0.83;;
5801;SDS011;2927;49.366;8.530;2023-04-03T15:28:18;1.20;;;1.10;;
5801;SDS011;2927;49.366;8.530;2023-04-03T15:30:56;1.83;;;0.93;;
5801;SDS011;2927;49.366;8.530;2023-04-03T15:33:22;1.27;;;0.67;;
5801;SDS011;2927;49.366;8.530;2023-04-03T15:35:48;3.70;;;0.70;;
5801;SDS011;2927;49.366;8.530;2023-04-03T15:38:13;5.23;;;1.00;;
5801;SDS011;2927;49.366;8.530;2023-04-03T15:40:39;1.50;;;0.77;;
5801;SDS011;2927;49.366;8.530;2023-04-03T15:43:06;3.10;;;1.20;;
5801;SDS011;2927;49.366;8.530;2023-04-03T15:45:32;2.00;;;1.00;;
5801;SDS011;2927;49.366;8.530;2023-04-03T15:48:00;1.80;;;0.80;;
5801;SDS011;2927;49.366;8.530;2023-04-03T15:50:26;4.07;;;1.30;;
5801;SDS011;2927;49.366;8.530;2023-04-03T15:52:52;0.90;;;0.80;;
5801;SDS011;2927;49.366;8.530;2023-04-03T15:55:24;6.33;;;1.00;;
5801;SDS011;2927;49.366;8.530;2023-04-03T15:57:52;3.30;;;1.10;;
5801;SDS011;2927;49.366;8.530;2023-04-03T16:00:18;3.13;;;1.17;;
5801;SDS011;2927;49.366;8.530;2023-04-03T16:02:45;4.63;;;1.20;;
5801;SDS011;2927;49.366;8.530;2023-04-03T16:05:12;1.90;;;0.93;;
5801;SDS011;2927;49.366;8.530;2023-04-03T16:07:41;3.00;;;1.10;;
5801;SDS011;2927;49.366;8.530;2023-04-03T16:10:07;1.37;;;0.73;;
5801;SDS011;2927;49.366;8.530;2023-04-03T16:12:35;3.17;;;0.70;;
5801;SDS011;2927;49.366;8.530;2023-04-03T16:15:01;3.27;;;0.90;;
5801;SDS011;2927;49.366;8.530;2023-04-03T16:17:27;0.93;;;0.60;;
5801;SDS011;2927;49.366;8.530;2023-04-03T16:19:56;2.33;;;0.80;;
5801;SDS011;2927;49.366;8.530;2023-04-03T16:22:22;1.27;;;0.90;;
5801;SDS011;2927;49.366;8.530;2023-04-03T16:24:49;0.60;;;0.60;;
5801;SDS011;2927;49.366;8.530;2023-04-03T16:27:15;2.20;;;1.37;;
5801;SDS011;2927;49.366;8.530;2023-04-03T16:29:41;1.23;;;0.80;;
5801;SDS011;2927;49.366;8.530;2023-04-03T16:32:07;1.20;;;1.00;;
5801;SDS011;2927;49.366;8.530;2023-04-03T16:34:33;0.93;;;0.80;;
5801;SDS011;2927;49.366;8.530;2023-04-03T16:36:59;4.53;;;0.90;;
5801;SDS011;2927;49.366;8.530;2023-04-03T16:39:25;3.37;;;1.87;;
5801;SDS011;2927;49.366;8.530;2023-04-03T16:41:51;4.43;;;1.17;;
5801;SDS011;2927;49.366;8.530;2023-04-03T16:44:16;1.43;;;1.20;;
5801;SDS011;2927;49.366;8.530;2023-04-03T16:46:42;0.97;;;0.70;;
5801;SDS011;2927;49.366;8.530;2023-04-03T16:49:07;2.30;;;0.87;;
5801;SDS011;2927;49.366;8.530;2023-04-03T16:51:33;1.80;;;0.70;;
5801;SDS011;2927;49.366;8.530;2023-04-03T16:53:59;5.20;;;0.93;;
5801;SDS011;2927;49.366;8.530;2023-04-03T16:56:24;2.90;;;1.30;;
5801;SDS011;2927;49.366;8.530;2023-04-03T16:58:51;2.30;;;1.10;;
5801;SDS011;2927;49.366;8.530;2023-04-03T17:01:19;1.70;;;0.77;;
5801;SDS011;2927;49.366;8.530;2023-04-03T17:03:46;2.10;;;0.90;;
5801;SDS011;2927;49.366;8.530;2023-04-03T17:06:13;3.70;;;1.10;;